CZ-0149 weather

Letiště Komárovice
Czech Republic

Public forecast

Using degrees Celsius for public forecast. Weather courtesy of forecast.io.

Closest aviation weather report (METAR) to Letiště Komárovice

Closest report is Náměšť Air Base, 20.5 nm (38.0 km) ESE. Retrieved 2020/08/03 20:30 UTC (14 minutes ago):

LKNA 032030Z 35009KT CAVOK 15/14 Q1008 NOSIG

Closest aviation forecast (TAF) to Letiště Komárovice

Closest forecast is Náměšť Air Base, 20.5 nm (38.0 km) ESE. Retrieved 2020/08/03 18:00 UTC (3 hours ago):

TAF LKNA 031700Z 0318/0418 33008KT 9999 SCT020 BKN035 TEMPO 0318/0418 7000 RA BKN015 TEMPO 0320/0411 4000 BR BKN010 PROB30 TEMPO 0322/0408 3000 RA BR BKN005 BECMG 0400/0402 07008KT